sensor_id;sensor_type;location;lat;lon;timestamp;P1;durP1;ratioP1;P2;durP2;ratioP2
45328;SDS011;31063;48.356;10.896;2023-06-10T00:02:10;8.57;;;7.70;;
45328;SDS011;31063;48.356;10.896;2023-06-10T00:04:36;10.77;;;8.33;;
45328;SDS011;31063;48.356;10.896;2023-06-10T00:07:05;10.97;;;8.50;;
45328;SDS011;31063;48.356;10.896;2023-06-10T00:09:34;8.98;;;8.18;;
45328;SDS011;31063;48.356;10.896;2023-06-10T00:12:06;9.73;;;8.77;;
45328;SDS011;31063;48.356;10.896;2023-06-10T00:14:38;9.15;;;8.25;;
45328;SDS011;31063;48.356;10.896;2023-06-10T00:17:05;10.23;;;8.85;;
45328;SDS011;31063;48.356;10.896;2023-06-10T00:19:34;9.55;;;8.68;;
45328;SDS011;31063;48.356;10.896;2023-06-10T00:22:00;9.32;;;8.40;;
45328;SDS011;31063;48.356;10.896;2023-06-10T00:24:25;9.33;;;8.17;;
45328;SDS011;31063;48.356;10.896;2023-06-10T00:26:51;8.90;;;8.10;;
45328;SDS011;31063;48.356;10.896;2023-06-10T00:29:17;9.53;;;8.57;;
45328;SDS011;31063;48.356;10.896;2023-06-10T00:31:44;9.60;;;8.57;;
45328;SDS011;31063;48.356;10.896;2023-06-10T00:34:11;9.75;;;8.48;;
45328;SDS011;31063;48.356;10.896;2023-06-10T00:36:37;9.30;;;8.50;;
45328;SDS011;31063;48.356;10.896;2023-06-10T00:39:02;9.90;;;8.90;;
45328;SDS011;31063;48.356;10.896;2023-06-10T00:41:29;10.32;;;8.98;;
45328;SDS011;31063;48.356;10.896;2023-06-10T00:43:55;10.10;;;9.20;;
45328;SDS011;31063;48.356;10.896;2023-06-10T00:46:21;9.80;;;8.77;;
45328;SDS011;31063;48.356;10.896;2023-06-10T00:48:48;9.38;;;8.48;;
45328;SDS011;31063;48.356;10.896;2023-06-10T00:51:15;14.10;;;8.82;;
45328;SDS011;31063;48.356;10.896;2023-06-10T00:53:41;9.48;;;8.60;;
45328;SDS011;31063;48.356;10.896;2023-06-10T00:56:07;9.25;;;8.30;;
45328;SDS011;31063;48.356;10.896;2023-06-10T00:58:34;11.48;;;9.07;;
45328;SDS011;31063;48.356;10.896;2023-06-10T01:01:00;11.13;;;8.77;;
45328;SDS011;31063;48.356;10.896;2023-06-10T01:03:26;10.20;;;8.95;;
45328;SDS011;31063;48.356;10.896;2023-06-10T01:08:53;10.77;;;9.68;;
45328;SDS011;31063;48.356;10.896;2023-06-10T01:11:28;9.73;;;8.73;;
45328;SDS011;31063;48.356;10.896;2023-06-10T01:14:00;10.43;;;9.43;;
45328;SDS011;31063;48.356;10.896;2023-06-10T01:16:27;10.05;;;8.98;;
45328;SDS011;31063;48.356;10.896;2023-06-10T01:18:53;10.63;;;9.25;;
45328;SDS011;31063;48.356;10.896;2023-06-10T01:21:20;9.82;;;8.93;;
45328;SDS011;31063;48.356;10.896;2023-06-10T01:23:49;10.68;;;9.43;;
45328;SDS011;31063;48.356;10.896;2023-06-10T01:26:16;10.20;;;9.25;;
45328;SDS011;31063;48.356;10.896;2023-06-10T01:28:48;10.88;;;9.52;;
45328;SDS011;31063;48.356;10.896;2023-06-10T01:34:12;9.93;;;8.93;;
45328;SDS011;31063;48.356;10.896;2023-06-10T01:36:40;10.13;;;9.15;;
45328;SDS011;31063;48.356;10.896;2023-06-10T01:39:09;12.70;;;9.50;;
45328;SDS011;31063;48.356;10.896;2023-06-10T01:41:36;10.70;;;9.30;;
45328;SDS011;31063;48.356;10.896;2023-06-10T01:44:03;11.10;;;10.00;;
45328;SDS011;31063;48.356;10.896;2023-06-10T01:46:29;10.65;;;9.65;;
45328;SDS011;31063;48.356;10.896;2023-06-10T01:48:54;13.60;;;9.37;;
45328;SDS011;31063;48.356;10.896;2023-06-10T01:51:20;10.43;;;9.43;;
45328;SDS011;31063;48.356;10.896;2023-06-10T01:53:46;10.13;;;9.13;;
45328;SDS011;31063;48.356;10.896;2023-06-10T01:56:11;10.53;;;9.47;;
45328;SDS011;31063;48.356;10.896;2023-06-10T01:58:43;11.10;;;9.45;;
45328;SDS011;31063;48.356;10.896;2023-06-10T02:01:09;10.88;;;9.77;;
45328;SDS011;31063;48.356;10.896;2023-06-10T02:03:35;11.02;;;9.82;;
45328;SDS011;31063;48.356;10.896;2023-06-10T02:06:01;10.23;;;9.23;;
45328;SDS011;31063;48.356;10.896;2023-06-10T02:08:26;10.13;;;9.17;;
45328;SDS011;31063;48.356;10.896;2023-06-10T02:10:53;11.55;;;9.63;;
45328;SDS011;31063;48.356;10.896;2023-06-10T02:13:18;9.77;;;8.88;;
45328;SDS011;31063;48.356;10.896;2023-06-10T02:15:44;11.00;;;9.90;;
45328;SDS011;31063;48.356;10.896;2023-06-10T02:18:10;10.63;;;9.52;;
45328;SDS011;31063;48.356;10.896;2023-06-10T02:23:02;12.23;;;10.05;;
45328;SDS011;31063;48.356;10.896;2023-06-10T02:25:28;10.68;;;9.63;;
45328;SDS011;31063;48.356;10.896;2023-06-10T02:27:54;10.85;;;9.45;;
45328;SDS011;31063;48.356;10.896;2023-06-10T02:30:20;12.57;;;10.00;;
45328;SDS011;31063;48.356;10.896;2023-06-10T02:32:46;11.43;;;10.32;;
45328;SDS011;31063;48.356;10.896;2023-06-10T02:35:13;11.55;;;10.45;;
45328;SDS011;31063;48.356;10.896;2023-06-10T02:37:39;10.45;;;9.45;;
45328;SDS011;31063;48.356;10.896;2023-06-10T02:40:05;11.20;;;10.10;;
45328;SDS011;31063;48.356;10.896;2023-06-10T02:44:57;11.18;;;10.07;;
45328;SDS011;31063;48.356;10.896;2023-06-10T02:47:23;11.50;;;10.40;;
45328;SDS011;31063;48.356;10.896;2023-06-10T02:49:48;11.07;;;9.97;;
45328;SDS011;31063;48.356;10.896;2023-06-10T02:52:14;11.40;;;10.30;;
45328;SDS011;31063;48.356;10.896;2023-06-10T02:54:40;11.95;;;10.65;;
45328;SDS011;31063;48.356;10.896;2023-06-10T02:57:05;11.45;;;10.13;;
45328;SDS011;31063;48.356;10.896;2023-06-10T02:59:32;10.55;;;9.55;;
45328;SDS011;31063;48.356;10.896;2023-06-10T03:01:57;10.90;;;9.80;;
45328;SDS011;31063;48.356;10.896;2023-06-10T03:04:24;11.90;;;10.50;;
45328;SDS011;31063;48.356;10.896;2023-06-10T03:06:50;11.63;;;10.20;;
45328;SDS011;31063;48.356;10.896;2023-06-10T03:09:16;11.50;;;10.40;;
45328;SDS011;31063;48.356;10.896;2023-06-10T03:11:41;11.23;;;10.13;;
45328;SDS011;31063;48.356;10.896;2023-06-10T03:14:07;11.60;;;10.50;;
45328;SDS011;31063;48.356;10.896;2023-06-10T03:16:32;11.60;;;10.43;;
45328;SDS011;31063;48.356;10.896;2023-06-10T03:18:58;11.47;;;10.33;;
45328;SDS011;31063;48.356;10.896;2023-06-10T03:21:24;12.30;;;11.03;;
45328;SDS011;31063;48.356;10.896;2023-06-10T03:23:49;12.53;;;11.30;;
45328;SDS011;31063;48.356;10.896;2023-06-10T03:26:15;12.57;;;11.30;;
45328;SDS011;31063;48.356;10.896;2023-06-10T03:28:41;12.13;;;10.93;;
45328;SDS011;31063;48.356;10.896;2023-06-10T03:31:07;12.50;;;10.03;;
45328;SDS011;31063;48.356;10.896;2023-06-10T03:33:32;11.73;;;10.53;;
45328;SDS011;31063;48.356;10.896;2023-06-10T03:35:58;11.73;;;10.53;;
45328;SDS011;31063;48.356;10.896;2023-06-10T03:38:24;11.68;;;10.48;;
45328;SDS011;31063;48.356;10.896;2023-06-10T03:40:49;12.52;;;11.07;;
45328;SDS011;31063;48.356;10.896;2023-06-10T03:43:15;11.33;;;10.23;;
45328;SDS011;31063;48.356;10.896;2023-06-10T03:45:41;11.67;;;10.47;;
45328;SDS011;31063;48.356;10.896;2023-06-10T03:48:06;12.57;;;11.40;;
45328;SDS011;31063;48.356;10.896;2023-06-10T03:52:59;12.05;;;10.85;;
45328;SDS011;31063;48.356;10.896;2023-06-10T03:55:25;11.70;;;10.55;;
45328;SDS011;31063;48.356;10.896;2023-06-10T03:57:50;11.98;;;10.85;;
45328;SDS011;31063;48.356;10.896;2023-06-10T04:00:16;11.53;;;10.43;;
45328;SDS011;31063;48.356;10.896;2023-06-10T04:02:42;11.88;;;10.75;;
45328;SDS011;31063;48.356;10.896;2023-06-10T04:05:13;14.10;;;10.82;;
45328;SDS011;31063;48.356;10.896;2023-06-10T04:07:40;12.10;;;10.80;;
45328;SDS011;31063;48.356;10.896;2023-06-10T04:10:07;11.52;;;10.32;;
45328;SDS011;31063;48.356;10.896;2023-06-10T04:12:33;11.88;;;10.60;;
45328;SDS011;31063;48.356;10.896;2023-06-10T04:14:59;11.98;;;10.88;;
45328;SDS011;31063;48.356;10.896;2023-06-10T04:17:25;11.73;;;10.23;;
45328;SDS011;31063;48.356;10.896;2023-06-10T04:19:51;10.98;;;9.80;;
45328;SDS011;31063;48.356;10.896;2023-06-10T04:22:17;12.30;;;10.67;;
45328;SDS011;31063;48.356;10.896;2023-06-10T04:24:43;11.02;;;9.93;;
45328;SDS011;31063;48.356;10.896;2023-06-10T04:27:09;11.40;;;10.30;;
45328;SDS011;31063;48.356;10.896;2023-06-10T04:29:35;11.55;;;10.35;;
45328;SDS011;31063;48.356;10.896;2023-06-10T04:32:01;11.18;;;10.07;;
45328;SDS011;31063;48.356;10.896;2023-06-10T04:34:27;12.48;;;9.93;;
45328;SDS011;31063;48.356;10.896;2023-06-10T04:36:53;11.95;;;10.60;;
45328;SDS011;31063;48.356;10.896;2023-06-10T04:39:19;12.60;;;9.88;;
45328;SDS011;31063;48.356;10.896;2023-06-10T04:41:45;11.35;;;10.27;;
45328;SDS011;31063;48.356;10.896;2023-06-10T04:44:11;10.85;;;9.75;;
45328;SDS011;31063;48.356;10.896;2023-06-10T04:46:37;11.77;;;9.98;;
45328;SDS011;31063;48.356;10.896;2023-06-10T04:49:03;10.70;;;9.70;;
45328;SDS011;31063;48.356;10.896;2023-06-10T04:51:30;10.95;;;9.90;;
45328;SDS011;31063;48.356;10.896;2023-06-10T04:53:56;11.20;;;9.63;;
45328;SDS011;31063;48.356;10.896;2023-06-10T04:56:22;9.75;;;8.75;;
45328;SDS011;31063;48.356;10.896;2023-06-10T04:58:48;11.27;;;9.77;;
45328;SDS011;31063;48.356;10.896;2023-06-10T05:01:14;10.63;;;9.63;;
45328;SDS011;31063;48.356;10.896;2023-06-10T05:03:40;11.55;;;9.85;;
45328;SDS011;31063;48.356;10.896;2023-06-10T05:06:06;11.40;;;10.20;;
45328;SDS011;31063;48.356;10.896;2023-06-10T05:08:31;10.70;;;9.60;;
45328;SDS011;31063;48.356;10.896;2023-06-10T05:10:58;10.63;;;9.57;;
45328;SDS011;31063;48.356;10.896;2023-06-10T05:13:23;13.98;;;9.77;;
45328;SDS011;31063;48.356;10.896;2023-06-10T05:15:49;11.03;;;9.80;;
45328;SDS011;31063;48.356;10.896;2023-06-10T05:18:15;11.27;;;10.18;;
45328;SDS011;31063;48.356;10.896;2023-06-10T05:20:40;11.87;;;9.73;;
45328;SDS011;31063;48.356;10.896;2023-06-10T05:23:06;10.90;;;9.73;;
45328;SDS011;31063;48.356;10.896;2023-06-10T05:25:32;10.67;;;9.67;;
45328;SDS011;31063;48.356;10.896;2023-06-10T05:27:58;9.85;;;8.70;;
45328;SDS011;31063;48.356;10.896;2023-06-10T05:30:24;10.82;;;9.73;;
45328;SDS011;31063;48.356;10.896;2023-06-10T05:32:50;10.13;;;9.13;;
45328;SDS011;31063;48.356;10.896;2023-06-10T05:35:17;10.30;;;9.30;;
45328;SDS011;31063;48.356;10.896;2023-06-10T05:37:43;11.10;;;10.00;;
45328;SDS011;31063;48.356;10.896;2023-06-10T05:40:09;12.95;;;8.93;;
45328;SDS011;31063;48.356;10.896;2023-06-10T05:42:35;9.65;;;8.73;;
45328;SDS011;31063;48.356;10.896;2023-06-10T05:45:01;10.00;;;9.07;;
45328;SDS011;31063;48.356;10.896;2023-06-10T05:49:53;10.45;;;9.45;;
45328;SDS011;31063;48.356;10.896;2023-06-10T05:52:18;10.20;;;9.20;;
45328;SDS011;31063;48.356;10.896;2023-06-10T05:54:44;11.47;;;9.63;;
45328;SDS011;31063;48.356;10.896;2023-06-10T05:57:10;10.43;;;9.33;;
45328;SDS011;31063;48.356;10.896;2023-06-10T05:59:35;10.40;;;9.30;;
45328;SDS011;31063;48.356;10.896;2023-06-10T06:02:01;10.07;;;9.17;;
45328;SDS011;31063;48.356;10.896;2023-06-10T06:04:27;10.67;;;9.67;;
45328;SDS011;31063;48.356;10.896;2023-06-10T06:06:52;10.77;;;9.77;;
45328;SDS011;31063;48.356;10.896;2023-06-10T06:09:18;10.80;;;9.73;;
45328;SDS011;31063;48.356;10.896;2023-06-10T06:11:43;11.10;;;10.00;;
45328;SDS011;31063;48.356;10.896;2023-06-10T06:14:09;10.93;;;9.82;;
45328;SDS011;31063;48.356;10.896;2023-06-10T06:16:35;11.43;;;10.33;;
45328;SDS011;31063;48.356;10.896;2023-06-10T06:19:00;11.40;;;10.20;;
45328;SDS011;31063;48.356;10.896;2023-06-10T06:21:26;11.73;;;10.23;;
45328;SDS011;31063;48.356;10.896;2023-06-10T06:23:52;11.60;;;10.50;;
45328;SDS011;31063;48.356;10.896;2023-06-10T06:26:17;11.65;;;10.50;;
45328;SDS011;31063;48.356;10.896;2023-06-10T06:28:43;12.30;;;10.60;;
45328;SDS011;31063;48.356;10.896;2023-06-10T06:31:09;13.30;;;11.15;;
45328;SDS011;31063;48.356;10.896;2023-06-10T06:33:35;11.98;;;10.68;;
45328;SDS011;31063;48.356;10.896;2023-06-10T06:36:00;11.97;;;10.77;;
45328;SDS011;31063;48.356;10.896;2023-06-10T06:38:26;11.48;;;10.27;;
45328;SDS011;31063;48.356;10.896;2023-06-10T06:40:52;11.82;;;10.60;;
45328;SDS011;31063;48.356;10.896;2023-06-10T06:43:17;12.68;;;10.98;;
45328;SDS011;31063;48.356;10.896;2023-06-10T06:45:43;11.38;;;10.18;;
45328;SDS011;31063;48.356;10.896;2023-06-10T06:50:36;10.82;;;9.73;;
45328;SDS011;31063;48.356;10.896;2023-06-10T06:53:01;11.07;;;9.73;;
45328;SDS011;31063;48.356;10.896;2023-06-10T06:55:27;12.63;;;9.73;;
45328;SDS011;31063;48.356;10.896;2023-06-10T06:57:53;10.87;;;9.73;;
45328;SDS011;31063;48.356;10.896;2023-06-10T07:00:19;11.38;;;9.18;;
45328;SDS011;31063;48.356;10.896;2023-06-10T07:02:44;10.60;;;9.30;;
45328;SDS011;31063;48.356;10.896;2023-06-10T07:05:10;10.47;;;9.37;;
45328;SDS011;31063;48.356;10.896;2023-06-10T07:07:36;10.80;;;9.70;;
45328;SDS011;31063;48.356;10.896;2023-06-10T07:10:01;10.30;;;8.97;;
45328;SDS011;31063;48.356;10.896;2023-06-10T07:12:27;11.87;;;9.97;;
45328;SDS011;31063;48.356;10.896;2023-06-10T07:14:53;10.35;;;8.95;;
45328;SDS011;31063;48.356;10.896;2023-06-10T07:17:18;9.97;;;9.03;;
45328;SDS011;31063;48.356;10.896;2023-06-10T07:19:45;9.85;;;8.95;;
45328;SDS011;31063;48.356;10.896;2023-06-10T07:22:10;9.52;;;8.65;;
45328;SDS011;31063;48.356;10.896;2023-06-10T07:24:36;11.50;;;9.73;;
45328;SDS011;31063;48.356;10.896;2023-06-10T07:27:02;9.90;;;8.47;;
45328;SDS011;31063;48.356;10.896;2023-06-10T07:29:27;9.93;;;8.20;;
45328;SDS011;31063;48.356;10.896;2023-06-10T07:31:53;9.47;;;8.57;;
45328;SDS011;31063;48.356;10.896;2023-06-10T07:34:19;9.77;;;8.87;;
45328;SDS011;31063;48.356;10.896;2023-06-10T07:36:44;10.15;;;9.15;;
45328;SDS011;31063;48.356;10.896;2023-06-10T07:39:10;9.87;;;8.97;;
45328;SDS011;31063;48.356;10.896;2023-06-10T07:41:36;9.38;;;8.48;;
45328;SDS011;31063;48.356;10.896;2023-06-10T07:44:01;9.40;;;8.53;;
45328;SDS011;31063;48.356;10.896;2023-06-10T07:46:27;9.40;;;8.30;;
45328;SDS011;31063;48.356;10.896;2023-06-10T07:48:53;10.75;;;9.73;;
45328;SDS011;31063;48.356;10.896;2023-06-10T07:51:20;9.35;;;8.45;;
45328;SDS011;31063;48.356;10.896;2023-06-10T07:53:46;8.55;;;7.68;;
45328;SDS011;31063;48.356;10.896;2023-06-10T07:56:11;9.50;;;8.60;;
45328;SDS011;31063;48.356;10.896;2023-06-10T07:58:37;8.32;;;7.50;;
45328;SDS011;31063;48.356;10.896;2023-06-10T08:01:03;8.50;;;7.70;;
45328;SDS011;31063;48.356;10.896;2023-06-10T08:03:29;8.90;;;8.00;;
45328;SDS011;31063;48.356;10.896;2023-06-10T08:05:54;9.52;;;8.20;;
45328;SDS011;31063;48.356;10.896;2023-06-10T08:08:20;10.20;;;8.60;;
45328;SDS011;31063;48.356;10.896;2023-06-10T08:10:46;10.00;;;7.63;;
45328;SDS011;31063;48.356;10.896;2023-06-10T08:13:11;9.40;;;8.10;;
45328;SDS011;31063;48.356;10.896;2023-06-10T08:15:37;8.77;;;7.90;;
45328;SDS011;31063;48.356;10.896;2023-06-10T08:18:03;8.13;;;7.43;;
45328;SDS011;31063;48.356;10.896;2023-06-10T08:20:28;9.07;;;8.18;;
45328;SDS011;31063;48.356;10.896;2023-06-10T08:22:54;8.00;;;7.30;;
45328;SDS011;31063;48.356;10.896;2023-06-10T08:25:20;8.13;;;7.40;;
45328;SDS011;31063;48.356;10.896;2023-06-10T08:27:47;7.93;;;6.78;;
45328;SDS011;31063;48.356;10.896;2023-06-10T08:30:13;7.07;;;6.40;;
45328;SDS011;31063;48.356;10.896;2023-06-10T08:32:39;8.35;;;7.47;;
45328;SDS011;31063;48.356;10.896;2023-06-10T08:35:04;8.52;;;7.65;;
45328;SDS011;31063;48.356;10.896;2023-06-10T08:37:30;8.52;;;7.75;;
45328;SDS011;31063;48.356;10.896;2023-06-10T08:39:56;7.90;;;7.20;;
45328;SDS011;31063;48.356;10.896;2023-06-10T08:42:35;8.20;;;7.40;;
45328;SDS011;31063;48.356;10.896;2023-06-10T08:45:18;6.43;;;5.43;;
45328;SDS011;31063;48.356;10.896;2023-06-10T08:47:46;6.25;;;5.63;;
45328;SDS011;31063;48.356;10.896;2023-06-10T08:50:18;6.75;;;5.30;;
45328;SDS011;31063;48.356;10.896;2023-06-10T08:52:44;5.80;;;5.25;;
45328;SDS011;31063;48.356;10.896;2023-06-10T08:55:14;6.10;;;5.60;;
45328;SDS011;31063;48.356;10.896;2023-06-10T08:57:44;8.30;;;5.47;;
45328;SDS011;31063;48.356;10.896;2023-06-10T09:00:11;7.47;;;5.45;;
45328;SDS011;31063;48.356;10.896;2023-06-10T09:02:38;9.13;;;6.20;;
45328;SDS011;31063;48.356;10.896;2023-06-10T09:07:30;6.38;;;5.72;;
45328;SDS011;31063;48.356;10.896;2023-06-10T09:09:56;7.25;;;5.43;;
45328;SDS011;31063;48.356;10.896;2023-06-10T09:12:23;7.55;;;5.88;;
45328;SDS011;31063;48.356;10.896;2023-06-10T09:14:49;5.80;;;5.28;;
45328;SDS011;31063;48.356;10.896;2023-06-10T09:17:16;6.25;;;5.65;;
45328;SDS011;31063;48.356;10.896;2023-06-10T09:19:42;6.75;;;5.28;;
45328;SDS011;31063;48.356;10.896;2023-06-10T09:22:09;6.28;;;5.68;;
45328;SDS011;31063;48.356;10.896;2023-06-10T09:24:34;5.60;;;4.50;;
45328;SDS011;31063;48.356;10.896;2023-06-10T09:29:27;5.57;;;5.07;;
45328;SDS011;31063;48.356;10.896;2023-06-10T09:31:53;5.47;;;4.85;;
45328;SDS011;31063;48.356;10.896;2023-06-10T09:34:19;6.40;;;5.72;;
45328;SDS011;31063;48.356;10.896;2023-06-10T09:36:49;6.03;;;5.30;;
45328;SDS011;31063;48.356;10.896;2023-06-10T09:39:16;5.53;;;5.03;;
45328;SDS011;31063;48.356;10.896;2023-06-10T09:41:43;7.38;;;5.57;;
45328;SDS011;31063;48.356;10.896;2023-06-10T09:44:13;8.73;;;5.18;;
45328;SDS011;31063;48.356;10.896;2023-06-10T09:46:39;7.80;;;4.78;;
45328;SDS011;31063;48.356;10.896;2023-06-10T09:49:05;8.20;;;5.13;;
45328;SDS011;31063;48.356;10.896;2023-06-10T09:51:31;8.23;;;4.85;;
45328;SDS011;31063;48.356;10.896;2023-06-10T09:53:57;4.93;;;4.53;;
45328;SDS011;31063;48.356;10.896;2023-06-10T09:56:34;4.93;;;4.18;;
45328;SDS011;31063;48.356;10.896;2023-06-10T09:59:00;4.60;;;4.20;;
45328;SDS011;31063;48.356;10.896;2023-06-10T10:01:27;4.93;;;4.32;;
45328;SDS011;31063;48.356;10.896;2023-06-10T10:03:53;4.78;;;4.38;;
45328;SDS011;31063;48.356;10.896;2023-06-10T10:06:19;6.30;;;4.75;;
45328;SDS011;31063;48.356;10.896;2023-06-10T10:08:46;6.95;;;4.85;;
45328;SDS011;31063;48.356;10.896;2023-06-10T10:11:21;5.10;;;4.60;;
45328;SDS011;31063;48.356;10.896;2023-06-10T10:13:48;8.07;;;5.00;;
45328;SDS011;31063;48.356;10.896;2023-06-10T10:16:37;5.13;;;4.63;;
45328;SDS011;31063;48.356;10.896;2023-06-10T10:19:27;7.05;;;4.68;;
45328;SDS011;31063;48.356;10.896;2023-06-10T10:22:07;4.63;;;4.22;;
45328;SDS011;31063;48.356;10.896;2023-06-10T10:24:39;6.38;;;4.30;;
45328;SDS011;31063;48.356;10.896;2023-06-10T10:27:16;4.47;;;4.07;;
45328;SDS011;31063;48.356;10.896;2023-06-10T10:29:45;5.35;;;4.72;;
45328;SDS011;31063;48.356;10.896;2023-06-10T10:32:13;5.80;;;4.45;;
45328;SDS011;31063;48.356;10.896;2023-06-10T10:34:53;5.72;;;5.22;;
45328;SDS011;31063;48.356;10.896;2023-06-10T10:37:25;5.47;;;4.97;;
45328;SDS011;31063;48.356;10.896;2023-06-10T10:39:51;5.43;;;4.82;;
45328;SDS011;31063;48.356;10.896;2023-06-10T10:42:17;5.40;;;4.88;;
45328;SDS011;31063;48.356;10.896;2023-06-10T10:44:44;5.88;;;5.38;;
45328;SDS011;31063;48.356;10.896;2023-06-10T10:47:10;5.95;;;5.43;;
45328;SDS011;31063;48.356;10.896;2023-06-10T10:49:37;7.85;;;5.15;;
45328;SDS011;31063;48.356;10.896;2023-06-10T10:52:04;6.18;;;5.57;;
45328;SDS011;31063;48.356;10.896;2023-06-10T10:54:36;5.40;;;4.90;;
45328;SDS011;31063;48.356;10.896;2023-06-10T10:57:17;6.00;;;5.32;;
45328;SDS011;31063;48.356;10.896;2023-06-10T10:59:45;10.77;;;5.95;;
45328;SDS011;31063;48.356;10.896;2023-06-10T11:02:33;6.50;;;5.40;;
45328;SDS011;31063;48.356;10.896;2023-06-10T11:04:59;6.40;;;5.80;;
45328;SDS011;31063;48.356;10.896;2023-06-10T11:07:26;5.38;;;4.90;;
45328;SDS011;31063;48.356;10.896;2023-06-10T11:12:25;5.68;;;4.75;;
45328;SDS011;31063;48.356;10.896;2023-06-10T11:17:20;4.97;;;4.53;;
45328;SDS011;31063;48.356;10.896;2023-06-10T11:19:46;5.68;;;4.60;;
45328;SDS011;31063;48.356;10.896;2023-06-10T11:22:16;5.05;;;4.63;;
45328;SDS011;31063;48.356;10.896;2023-06-10T11:24:47;6.40;;;4.35;;
45328;SDS011;31063;48.356;10.896;2023-06-10T11:27:15;5.55;;;4.95;;
45328;SDS011;31063;48.356;10.896;2023-06-10T11:32:31;5.57;;;4.82;;
45328;SDS011;31063;48.356;10.896;2023-06-10T11:34:58;5.25;;;4.65;;
45328;SDS011;31063;48.356;10.896;2023-06-10T11:37:24;5.18;;;4.78;;
45328;SDS011;31063;48.356;10.896;2023-06-10T11:39:53;5.68;;;5.18;;
45328;SDS011;31063;48.356;10.896;2023-06-10T11:42:21;6.32;;;4.95;;
45328;SDS011;31063;48.356;10.896;2023-06-10T11:44:48;5.38;;;4.85;;
45328;SDS011;31063;48.356;10.896;2023-06-10T11:47:15;5.18;;;4.68;;
45328;SDS011;31063;48.356;10.896;2023-06-10T11:49:40;5.20;;;4.70;;
45328;SDS011;31063;48.356;10.896;2023-06-10T11:52:06;9.02;;;5.65;;
45328;SDS011;31063;48.356;10.896;2023-06-10T11:54:32;5.70;;;5.20;;
45328;SDS011;31063;48.356;10.896;2023-06-10T11:56:58;5.72;;;5.20;;
45328;SDS011;31063;48.356;10.896;2023-06-10T11:59:33;5.78;;;5.28;;
45328;SDS011;31063;48.356;10.896;2023-06-10T12:01:59;6.00;;;5.40;;
45328;SDS011;31063;48.356;10.896;2023-06-10T12:04:25;6.70;;;5.78;;
45328;SDS011;31063;48.356;10.896;2023-06-10T12:06:54;6.28;;;5.65;;
45328;SDS011;31063;48.356;10.896;2023-06-10T12:09:21;6.25;;;5.70;;
45328;SDS011;31063;48.356;10.896;2023-06-10T12:11:49;6.40;;;5.80;;
45328;SDS011;31063;48.356;10.896;2023-06-10T12:19:59;6.55;;;5.85;;
45328;SDS011;31063;48.356;10.896;2023-06-10T12:22:26;8.05;;;5.93;;
45328;SDS011;31063;48.356;10.896;2023-06-10T12:24:58;6.45;;;5.50;;
45328;SDS011;31063;48.356;10.896;2023-06-10T12:27:26;6.60;;;6.00;;
45328;SDS011;31063;48.356;10.896;2023-06-10T12:29:54;5.90;;;5.40;;
45328;SDS011;31063;48.356;10.896;2023-06-10T12:32:34;6.40;;;5.38;;
45328;SDS011;31063;48.356;10.896;2023-06-10T12:35:04;6.43;;;5.70;;
45328;SDS011;31063;48.356;10.896;2023-06-10T12:37:30;6.53;;;5.70;;
45328;SDS011;31063;48.356;10.896;2023-06-10T12:39:59;5.85;;;5.30;;
45328;SDS011;31063;48.356;10.896;2023-06-10T12:42:27;7.00;;;5.70;;
45328;SDS011;31063;48.356;10.896;2023-06-10T12:44:53;7.70;;;6.00;;
45328;SDS011;31063;48.356;10.896;2023-06-10T12:47:20;6.03;;;5.43;;
45328;SDS011;31063;48.356;10.896;2023-06-10T12:49:53;5.57;;;5.07;;
45328;SDS011;31063;48.356;10.896;2023-06-10T12:52:19;8.38;;;5.13;;
45328;SDS011;31063;48.356;10.896;2023-06-10T12:54:45;5.50;;;5.00;;
45328;SDS011;31063;48.356;10.896;2023-06-10T12:57:10;8.43;;;5.80;;
45328;SDS011;31063;48.356;10.896;2023-06-10T12:59:36;5.88;;;5.30;;
45328;SDS011;31063;48.356;10.896;2023-06-10T13:02:02;7.22;;;5.05;;
45328;SDS011;31063;48.356;10.896;2023-06-10T13:04:28;6.90;;;5.28;;
45328;SDS011;31063;48.356;10.896;2023-06-10T13:06:53;5.60;;;5.10;;
45328;SDS011;31063;48.356;10.896;2023-06-10T13:09:19;6.30;;;5.70;;
45328;SDS011;31063;48.356;10.896;2023-06-10T13:11:45;6.30;;;5.70;;
45328;SDS011;31063;48.356;10.896;2023-06-10T13:14:10;5.43;;;4.93;;
45328;SDS011;31063;48.356;10.896;2023-06-10T13:16:36;7.82;;;5.40;;
45328;SDS011;31063;48.356;10.896;2023-06-10T13:19:03;5.32;;;4.70;;
45328;SDS011;31063;48.356;10.896;2023-06-10T13:21:30;5.40;;;4.90;;
45328;SDS011;31063;48.356;10.896;2023-06-10T13:23:57;6.90;;;5.03;;
45328;SDS011;31063;48.356;10.896;2023-06-10T13:26:22;5.05;;;4.63;;
45328;SDS011;31063;48.356;10.896;2023-06-10T13:28:48;5.00;;;4.60;;
45328;SDS011;31063;48.356;10.896;2023-06-10T13:31:13;4.55;;;4.15;;
45328;SDS011;31063;48.356;10.896;2023-06-10T13:33:39;4.68;;;4.13;;
45328;SDS011;31063;48.356;10.896;2023-06-10T13:36:05;4.50;;;4.10;;
45328;SDS011;31063;48.356;10.896;2023-06-10T13:38:31;4.90;;;4.20;;
45328;SDS011;31063;48.356;10.896;2023-06-10T13:40:56;5.55;;;3.92;;
45328;SDS011;31063;48.356;10.896;2023-06-10T13:43:22;4.70;;;4.30;;
45328;SDS011;31063;48.356;10.896;2023-06-10T13:45:48;4.53;;;4.13;;
45328;SDS011;31063;48.356;10.896;2023-06-10T13:48:13;4.07;;;3.65;;
45328;SDS011;31063;48.356;10.896;2023-06-10T13:50:39;3.67;;;3.38;;
45328;SDS011;31063;48.356;10.896;2023-06-10T13:53:05;5.38;;;4.15;;
45328;SDS011;31063;48.356;10.896;2023-06-10T13:55:30;4.32;;;3.97;;
45328;SDS011;31063;48.356;10.896;2023-06-10T13:57:56;4.88;;;3.58;;
45328;SDS011;31063;48.356;10.896;2023-06-10T14:00:21;3.55;;;3.25;;
45328;SDS011;31063;48.356;10.896;2023-06-10T14:02:47;3.53;;;3.28;;
45328;SDS011;31063;48.356;10.896;2023-06-10T14:05:13;3.40;;;3.10;;
45328;SDS011;31063;48.356;10.896;2023-06-10T14:07:38;3.95;;;3.55;;
45328;SDS011;31063;48.356;10.896;2023-06-10T14:10:05;4.55;;;3.60;;
45328;SDS011;31063;48.356;10.896;2023-06-10T14:12:33;3.83;;;3.53;;
45328;SDS011;31063;48.356;10.896;2023-06-10T14:14:58;3.88;;;3.58;;
45328;SDS011;31063;48.356;10.896;2023-06-10T14:17:24;3.88;;;3.58;;
45328;SDS011;31063;48.356;10.896;2023-06-10T14:19:50;3.78;;;3.47;;
45328;SDS011;31063;48.356;10.896;2023-06-10T14:22:16;5.07;;;3.72;;
45328;SDS011;31063;48.356;10.896;2023-06-10T14:24:41;3.85;;;3.55;;
45328;SDS011;31063;48.356;10.896;2023-06-10T14:27:07;4.53;;;3.60;;
45328;SDS011;31063;48.356;10.896;2023-06-10T14:29:32;3.80;;;3.50;;
45328;SDS011;31063;48.356;10.896;2023-06-10T14:31:59;3.60;;;3.30;;
45328;SDS011;31063;48.356;10.896;2023-06-10T14:36:54;3.50;;;3.17;;
45328;SDS011;31063;48.356;10.896;2023-06-10T14:39:20;4.00;;;3.65;;
45328;SDS011;31063;48.356;10.896;2023-06-10T14:41:45;5.80;;;3.08;;
45328;SDS011;31063;48.356;10.896;2023-06-10T14:44:11;3.10;;;2.90;;
45328;SDS011;31063;48.356;10.896;2023-06-10T14:46:36;3.22;;;3.03;;
45328;SDS011;31063;48.356;10.896;2023-06-10T14:49:02;3.45;;;3.15;;
45328;SDS011;31063;48.356;10.896;2023-06-10T14:51:28;3.50;;;3.20;;
45328;SDS011;31063;48.356;10.896;2023-06-10T14:53:53;4.03;;;3.72;;
45328;SDS011;31063;48.356;10.896;2023-06-10T14:56:19;3.42;;;3.10;;
45328;SDS011;31063;48.356;10.896;2023-06-10T14:58:45;3.33;;;3.10;;
45328;SDS011;31063;48.356;10.896;2023-06-10T15:01:10;3.72;;;2.92;;
45328;SDS011;31063;48.356;10.896;2023-06-10T15:03:36;3.75;;;3.35;;